Time;durP1;ratioP1;P1;durP2;ratioP2;P2;SDS_P1;SDS_P2;PMS_P1;PMS_P2;Temp;Humidity;BMP_temperature;BMP_pressure;BME280_temperature;BME280_humidity;BME280_pressure;Samples;Min_cycle;Max_cycle;Signal;HPM_P1;HPM_P2
2023/09/14 00:00:16;;;;;;;11.68;3.67;;;12.70;99.90;;;;;;5053530;28;20029;-74
2023/09/14 00:02:41;;;;;;;17.27;4.18;;;12.70;99.90;;;;;;5053535;28;20036;-74
2023/09/14 00:05:07;;;;;;;17.77;4.35;;;12.70;99.90;;;;;;5053726;28;20115;-74
2023/09/14 00:07:33;;;;;;;12.73;3.90;;;12.70;99.90;;;;;;5053358;28;20025;-74
2023/09/14 00:09:58;;;;;;;12.55;4.00;;;12.70;99.90;;;;;;5053037;28;20036;-74
2023/09/14 00:12:24;;;;;;;14.77;4.55;;;12.60;99.90;;;;;;5053641;28;20036;-74
2023/09/14 00:14:50;;;;;;;11.77;3.95;;;12.70;99.90;;;;;;5053069;28;20029;-73
2023/09/14 00:17:15;;;;;;;19.08;3.63;;;12.70;99.90;;;;;;5053753;28;20478;-74
2023/09/14 00:19:41;;;;;;;15.90;3.90;;;12.80;99.90;;;;;;5053576;28;20035;-74
2023/09/14 00:22:07;;;;;;;16.77;4.38;;;12.80;99.90;;;;;;5053364;28;20068;-74
2023/09/14 00:24:32;;;;;;;17.40;4.05;;;12.80;99.90;;;;;;5053243;28;20449;-74
2023/09/14 00:26:58;;;;;;;15.00;4.18;;;12.80;99.90;;;;;;5052590;28;20056;-74
2023/09/14 00:29:23;;;;;;;12.75;3.45;;;12.90;99.90;;;;;;5053126;28;20099;-74
2023/09/14 00:31:49;;;;;;;13.45;3.65;;;12.90;99.90;;;;;;5053550;28;20420;-74
2023/09/14 00:34:14;;;;;;;11.68;3.67;;;12.90;99.90;;;;;;5052619;28;20116;-73
2023/09/14 00:36:40;;;;;;;12.30;3.28;;;12.90;99.90;;;;;;5053500;28;20340;-74
2023/09/14 00:39:09;;;;;;;15.00;3.38;;;12.80;99.90;;;;;;5056779;28;20057;-74
2023/09/14 00:41:35;;;;;;;11.18;3.47;;;12.80;99.90;;;;;;5057178;28;20455;-73
2023/09/14 00:44:01;;;;;;;12.80;3.30;;;12.70;99.90;;;;;;5056326;28;20028;-73
2023/09/14 00:46:27;;;;;;;13.85;3.70;;;12.70;99.90;;;;;;5056698;28;20037;-74
2023/09/14 00:48:53;;;;;;;11.60;3.60;;;12.60;99.90;;;;;;5056041;28;20055;-74
2023/09/14 00:51:19;;;;;;;14.15;3.70;;;12.60;99.90;;;;;;5056393;28;20025;-73
2023/09/14 00:53:45;;;;;;;13.95;3.97;;;12.50;99.90;;;;;;5056600;28;20025;-74
2023/09/14 00:56:11;;;;;;;12.65;3.75;;;12.40;99.90;;;;;;5056722;28;20040;-73
2023/09/14 00:58:38;;;;;;;14.57;3.78;;;12.40;99.90;;;;;;5056505;28;20025;-73
2023/09/14 01:01:04;;;;;;;9.75;3.38;;;12.30;99.90;;;;;;5056666;28;20064;-73
2023/09/14 01:03:31;;;;;;;11.48;3.75;;;12.20;99.90;;;;;;5055784;28;20110;-73
2023/09/14 01:05:58;;;;;;;13.32;4.15;;;12.10;99.90;;;;;;5055810;28;20033;-74
2023/09/14 01:08:24;;;;;;;11.00;3.65;;;12.10;99.90;;;;;;5055939;28;20021;-74
2023/09/14 01:10:49;;;;;;;12.02;3.70;;;12.00;99.90;;;;;;5056287;28;20373;-74
2023/09/14 01:13:29;;;;;;;7.90;3.33;;;11.90;99.90;;;;;;5055839;28;20120;-74
2023/09/14 01:16:05;;;;;;;6.93;3.63;;;11.90;99.90;;;;;;5056191;28;20029;-74
2023/09/14 01:18:40;;;;;;;10.23;3.40;;;11.80;99.90;;;;;;5056379;28;20523;-73
2023/09/14 01:21:33;;;;;;;6.70;3.22;;;11.70;99.90;;;;;;5056069;28;20371;-74
2023/09/14 01:24:38;;;;;;;10.55;3.25;;;11.60;99.90;;;;;;5055007;28;20025;-73
2023/09/14 01:27:05;;;;;;;7.35;3.08;;;11.60;99.90;;;;;;5054257;28;20112;-73
2023/09/14 01:29:30;;;;;;;8.00;3.35;;;11.50;99.90;;;;;;5054862;28;20052;-72
2023/09/14 01:31:56;;;;;;;11.25;3.58;;;11.40;99.90;;;;;;5055900;28;20017;-73
2023/09/14 01:34:22;;;;;;;13.10;3.08;;;11.40;99.90;;;;;;5055471;28;20082;-73
2023/09/14 01:36:56;;;;;;;15.50;4.18;;;11.30;99.90;;;;;;5055734;28;20041;-73
2023/09/14 01:39:24;;;;;;;8.38;3.40;;;11.30;99.90;;;;;;5055399;28;20175;-73
2023/09/14 01:41:54;;;;;;;10.70;3.08;;;11.20;99.90;;;;;;5055590;28;20029;-74
2023/09/14 01:44:24;;;;;;;18.50;4.85;;;11.20;99.90;;;;;;5055879;28;20545;-73
2023/09/14 01:46:50;;;;;;;9.98;3.45;;;11.10;99.90;;;;;;5055807;28;20029;-73
2023/09/14 01:49:16;;;;;;;8.00;3.80;;;11.10;99.90;;;;;;5055142;28;20035;-73
2023/09/14 01:51:41;;;;;;;10.55;3.83;;;11.00;99.90;;;;;;5034603;28;20029;-73
2023/09/14 01:54:07;;;;;;;11.65;3.53;;;11.00;99.90;;;;;;5035493;28;20075;-74
2023/09/14 01:56:32;;;;;;;6.53;3.17;;;11.00;99.90;;;;;;5035707;28;20056;-76
2023/09/14 01:58:58;;;;;;;11.30;3.78;;;10.90;99.90;;;;;;5035718;28;20120;-74
2023/09/14 02:01:24;;;;;;;12.63;3.78;;;10.90;99.90;;;;;;5034986;28;20059;-73
2023/09/14 02:03:49;;;;;;;16.70;4.00;;;10.90;99.90;;;;;;5035031;28;20060;-73
2023/09/14 02:06:15;;;;;;;12.43;4.18;;;10.80;99.90;;;;;;5035337;28;20025;-73
2023/09/14 02:08:40;;;;;;;9.30;3.47;;;10.80;99.90;;;;;;5035494;28;20372;-73
2023/09/14 02:11:06;;;;;;;12.57;3.85;;;10.80;99.90;;;;;;5034793;28;20034;-73
2023/09/14 02:13:34;;;;;;;7.25;3.28;;;10.70;99.90;;;;;;5034750;28;20017;-73
2023/09/14 02:15:59;;;;;;;13.63;4.13;;;10.70;99.90;;;;;;5034947;28;20104;-73
2023/09/14 02:18:25;;;;;;;15.55;4.68;;;10.70;99.90;;;;;;5035035;28;20152;-73
2023/09/14 02:20:50;;;;;;;8.18;3.80;;;10.60;99.90;;;;;;5035201;28;20030;-73
2023/09/14 02:23:17;;;;;;;12.35;4.57;;;10.60;99.90;;;;;;5035035;28;20534;-73
2023/09/14 02:25:43;;;;;;;9.18;3.92;;;10.60;99.90;;;;;;5035224;28;20026;-73
2023/09/14 02:28:09;;;;;;;12.90;4.28;;;10.60;99.90;;;;;;5034831;28;20029;-73
2023/09/14 02:30:39;;;;;;;11.88;4.53;;;10.50;99.90;;;;;;5033773;28;20144;-73
2023/09/14 02:33:06;;;;;;;14.82;5.13;;;10.50;99.90;;;;;;5034746;28;20099;-73
2023/09/14 02:35:32;;;;;;;13.57;4.45;;;10.50;99.90;;;;;;5034714;28;20025;-73
2023/09/14 02:37:57;;;;;;;11.27;4.07;;;10.50;99.90;;;;;;5034169;28;20029;-73
2023/09/14 02:40:23;;;;;;;9.20;4.55;;;10.50;99.90;;;;;;5034346;28;20037;-73
2023/09/14 02:42:48;;;;;;;7.32;3.53;;;10.50;99.90;;;;;;5034633;28;20033;-73
2023/09/14 02:45:14;;;;;;;8.48;4.45;;;10.60;99.90;;;;;;5034232;28;20026;-73
2023/09/14 02:47:40;;;;;;;7.97;4.28;;;10.60;99.90;;;;;;5034226;28;20029;-73
2023/09/14 02:50:05;;;;;;;6.85;3.83;;;10.70;99.90;;;;;;5033426;28;20387;-73
2023/09/14 02:52:31;;;;;;;9.20;4.25;;;10.80;99.90;;;;;;5034149;28;20034;-73
2023/09/14 02:54:59;;;;;;;18.48;5.30;;;10.80;99.90;;;;;;5034735;28;20029;-73
2023/09/14 02:57:24;;;;;;;16.98;5.00;;;11.00;99.90;;;;;;5033828;28;20026;-73
2023/09/14 02:59:54;;;;;;;18.58;5.47;;;11.00;99.90;;;;;;5033908;28;20033;-73
2023/09/14 03:02:20;;;;;;;13.00;4.55;;;11.00;99.90;;;;;;5034349;28;20033;-73
2023/09/14 03:04:46;;;;;;;13.77;4.53;;;11.00;99.90;;;;;;5034197;28;20029;-73
2023/09/14 03:07:12;;;;;;;16.58;4.88;;;11.00;99.90;;;;;;5033725;28;20041;-73
2023/09/14 03:09:37;;;;;;;8.43;4.38;;;11.00;99.90;;;;;;5034082;28;20066;-73
2023/09/14 03:12:03;;;;;;;13.43;5.00;;;11.00;99.90;;;;;;5034444;28;20061;-73
2023/09/14 03:14:29;;;;;;;11.48;4.15;;;11.00;99.90;;;;;;5033848;28;20030;-73
2023/09/14 03:16:55;;;;;;;8.85;4.22;;;11.00;99.90;;;;;;5034391;28;20049;-73
2023/09/14 03:19:20;;;;;;;16.48;5.00;;;11.00;99.90;;;;;;5033744;28;20017;-73
2023/09/14 03:21:46;;;;;;;10.02;4.43;;;11.10;99.90;;;;;;5033693;28;20116;-73
2023/09/14 03:24:12;;;;;;;7.90;3.88;;;11.00;99.90;;;;;;5033835;28;20021;-73
2023/09/14 03:26:38;;;;;;;13.95;5.20;;;11.00;99.90;;;;;;5034015;28;20517;-73
2023/09/14 03:29:03;;;;;;;10.57;4.93;;;11.10;99.90;;;;;;5033543;28;20112;-74
2023/09/14 03:31:29;;;;;;;20.00;5.43;;;11.10;99.90;;;;;;5033695;28;20029;-73
2023/09/14 03:33:55;;;;;;;14.48;5.35;;;11.10;99.90;;;;;;5033368;28;20034;-72
2023/09/14 03:36:21;;;;;;;15.23;4.90;;;11.00;99.90;;;;;;5033436;28;20534;-72
2023/09/14 03:38:46;;;;;;;14.93;5.53;;;11.00;99.90;;;;;;5033862;28;20364;-73
2023/09/14 03:41:12;;;;;;;11.52;5.63;;;10.90;99.90;;;;;;5033807;28;20041;-73
2023/09/14 03:43:42;;;;;;;21.02;5.30;;;10.90;99.90;;;;;;5034105;28;20041;-73
2023/09/14 03:46:08;;;;;;;12.68;5.05;;;10.90;99.90;;;;;;5033971;28;20080;-73
2023/09/14 03:48:34;;;;;;;9.48;4.53;;;11.00;99.90;;;;;;5034052;28;20028;-73
2023/09/14 03:51:00;;;;;;;8.30;4.25;;;10.90;99.90;;;;;;5033714;28;20368;-73
2023/09/14 03:53:27;;;;;;;12.23;4.72;;;10.90;99.90;;;;;;5034067;28;20444;-73
2023/09/14 03:55:54;;;;;;;14.98;5.53;;;10.90;99.90;;;;;;5033207;28;20044;-73
2023/09/14 03:58:21;;;;;;;10.52;4.85;;;10.90;99.90;;;;;;5033872;28;20073;-73
2023/09/14 04:00:47;;;;;;;11.27;4.82;;;10.90;99.90;;;;;;5032911;28;20026;-73
2023/09/14 04:03:13;;;;;;;14.52;5.47;;;10.90;99.90;;;;;;5033497;28;20088;-73
2023/09/14 04:05:38;;;;;;;8.10;4.55;;;10.90;99.90;;;;;;5033596;28;20029;-73
2023/09/14 04:08:04;;;;;;;14.15;5.22;;;10.80;99.90;;;;;;5033152;28;20095;-73
2023/09/14 04:10:30;;;;;;;12.43;5.90;;;10.90;99.90;;;;;;5033139;28;20030;-73
2023/09/14 04:13:32;;;;;;;10.52;5.05;;;10.80;99.90;;;;;;5035826;28;20078;-73
2023/09/14 04:15:59;;;;;;;11.85;5.28;;;10.80;99.90;;;;;;5037663;28;20026;-73
2023/09/14 04:18:25;;;;;;;7.55;4.75;;;10.80;99.90;;;;;;5037133;28;20025;-73
2023/09/14 04:20:51;;;;;;;10.30;4.55;;;10.80;99.90;;;;;;5036819;28;20030;-73
2023/09/14 04:23:17;;;;;;;13.52;5.28;;;10.80;99.90;;;;;;5037516;28;20041;-73
2023/09/14 04:25:46;;;;;;;8.45;5.55;;;10.80;99.90;;;;;;5037376;28;20120;-73
2023/09/14 04:28:13;;;;;;;8.40;4.90;;;10.80;99.90;;;;;;5037083;28;20462;-74
2023/09/14 04:30:59;;;;;;;13.60;5.65;;;10.80;99.90;;;;;;5036197;28;20518;-73
2023/09/14 04:33:25;;;;;;;8.10;4.53;;;10.70;99.90;;;;;;5036191;28;20064;-73
2023/09/14 04:36:01;;;;;;;8.88;4.82;;;10.60;99.90;;;;;;5037276;28;20030;-75
2023/09/14 04:38:26;;;;;;;11.38;5.45;;;10.70;99.90;;;;;;5037016;28;20036;-74
2023/09/14 04:40:52;;;;;;;9.93;5.68;;;10.60;99.90;;;;;;5036952;28;20038;-72
2023/09/14 04:43:18;;;;;;;12.57;5.60;;;10.60;99.90;;;;;;5037077;28;20029;-73
2023/09/14 04:45:46;;;;;;;15.82;6.93;;;10.50;99.90;;;;;;5037122;28;20035;-73
2023/09/14 04:48:11;;;;;;;17.90;6.60;;;10.50;99.90;;;;;;5037034;28;20348;-73
2023/09/14 04:50:37;;;;;;;11.02;5.10;;;10.40;99.90;;;;;;5036002;28;20025;-72
2023/09/14 04:53:03;;;;;;;10.75;5.13;;;10.40;99.90;;;;;;5036608;28;20029;-72
2023/09/14 04:55:28;;;;;;;8.43;5.32;;;10.40;99.90;;;;;;5036907;28;20037;-73
2023/09/14 04:57:54;;;;;;;9.82;5.45;;;10.40;99.90;;;;;;5036683;28;20033;-73
2023/09/14 05:00:20;;;;;;;9.90;5.60;;;10.40;99.90;;;;;;5036486;28;20044;-72
2023/09/14 05:02:45;;;;;;;8.88;5.25;;;10.40;99.90;;;;;;5036114;28;20033;-72
2023/09/14 05:05:11;;;;;;;13.55;5.68;;;10.30;99.90;;;;;;5036691;28;20037;-72
2023/09/14 05:07:39;;;;;;;16.55;5.70;;;10.40;99.90;;;;;;5035470;28;20442;-72
2023/09/14 05:10:06;;;;;;;12.02;5.90;;;10.30;99.90;;;;;;5036080;28;20057;-73
2023/09/14 05:12:32;;;;;;;11.27;6.03;;;10.30;99.90;;;;;;5036015;28;20154;-73
2023/09/14 05:14:57;;;;;;;11.38;5.78;;;10.40;99.90;;;;;;5036359;28;20025;-72
2023/09/14 05:17:23;;;;;;;9.13;5.95;;;10.40;99.90;;;;;;5036267;28;20467;-73
2023/09/14 05:19:48;;;;;;;11.80;6.72;;;10.40;99.90;;;;;;5036062;28;20052;-73
2023/09/14 05:22:14;;;;;;;15.98;7.90;;;10.50;99.90;;;;;;5036168;28;20018;-73
2023/09/14 05:24:40;;;;;;;15.57;7.55;;;10.50;99.90;;;;;;5035816;28;20026;-72
2023/09/14 05:27:06;;;;;;;16.08;7.47;;;10.60;99.90;;;;;;5035815;28;20383;-73
2023/09/14 05:29:31;;;;;;;17.00;7.28;;;10.60;99.90;;;;;;5035062;28;20057;-72
2023/09/14 05:31:57;;;;;;;18.55;7.00;;;10.60;99.90;;;;;;5035843;28;20037;-73
2023/09/14 05:34:23;;;;;;;26.10;9.23;;;10.60;99.90;;;;;;5035673;28;20025;-73
2023/09/14 05:36:49;;;;;;;20.20;8.95;;;10.70;99.90;;;;;;5035477;28;20025;-72
2023/09/14 05:39:15;;;;;;;21.80;9.95;;;10.80;99.90;;;;;;5035898;28;20083;-73
2023/09/14 05:41:41;;;;;;;17.02;9.45;;;10.90;99.90;;;;;;5035970;28;20063;-73
2023/09/14 05:44:09;;;;;;;19.67;9.65;;;11.00;99.90;;;;;;5035281;28;20061;-74
2023/09/14 05:46:35;;;;;;;17.25;9.27;;;11.10;99.90;;;;;;5036154;28;20095;-74
2023/09/14 05:49:00;;;;;;;18.55;9.43;;;11.30;99.90;;;;;;5036072;28;20419;-74
2023/09/14 05:51:26;;;;;;;18.33;9.68;;;11.40;99.90;;;;;;5043425;28;20025;-74
2023/09/14 05:53:52;;;;;;;17.95;9.43;;;11.60;99.90;;;;;;5054892;28;20033;-74
2023/09/14 05:56:17;;;;;;;19.08;9.32;;;11.70;99.90;;;;;;5054326;28;20119;-75
2023/09/14 05:58:43;;;;;;;18.95;9.18;;;11.80;99.90;;;;;;5054664;28;20029;-75
2023/09/14 06:01:09;;;;;;;26.10;10.57;;;12.00;99.90;;;;;;5055013;28;20634;-75
2023/09/14 06:03:35;;;;;;;21.70;9.90;;;12.10;99.90;;;;;;5055046;28;20025;-75
2023/09/14 06:06:00;;;;;;;24.35;10.45;;;12.30;99.90;;;;;;5054819;28;20078;-75
2023/09/14 06:08:26;;;;;;;22.85;10.70;;;12.40;99.90;;;;;;5054379;28;20113;-74
2023/09/14 06:10:52;;;;;;;19.90;9.15;;;12.60;99.90;;;;;;5054521;28;20491;-75
2023/09/14 06:13:18;;;;;;;17.38;7.47;;;12.70;99.90;;;;;;5055601;28;20114;-74
2023/09/14 06:15:43;;;;;;;11.30;7.10;;;12.80;99.90;;;;;;5055940;28;20025;-74
2023/09/14 06:18:09;;;;;;;14.13;6.30;;;13.10;99.90;;;;;;5055651;28;20040;-74
2023/09/14 06:20:35;;;;;;;15.40;6.53;;;13.30;99.90;;;;;;5055806;28;20033;-74
2023/09/14 06:23:01;;;;;;;12.32;6.25;;;13.50;99.90;;;;;;5055085;28;20029;-76
2023/09/14 06:25:26;;;;;;;13.75;6.00;;;13.70;99.90;;;;;;5055944;28;20047;-75
2023/09/14 06:27:52;;;;;;;11.75;4.72;;;14.10;99.90;;;;;;5056126;28;20089;-74
2023/09/14 06:30:17;;;;;;;10.38;5.15;;;15.70;99.90;;;;;;5054928;28;20053;-73
2023/09/14 06:32:43;;;;;;;10.93;4.95;;;16.90;99.90;;;;;;5055169;28;20028;-74
2023/09/14 06:35:09;;;;;;;5.90;4.13;;;18.00;50.20;;;;;;5054207;28;20103;-74
2023/09/14 06:37:35;;;;;;;12.05;4.45;;;19.10;1.00;;;;;;5048194;28;20033;-73
2023/09/14 06:40:00;;;;;;;9.65;4.07;;;20.40;99.90;;;;;;5054646;28;20471;-74
2023/09/14 06:42:26;;;;;;;9.40;4.03;;;20.90;67.10;;;;;;5053770;28;20086;-74
2023/09/14 06:44:52;;;;;;;10.23;3.72;;;;;;;;;;5053163;28;20025;-73
2023/09/14 06:47:17;;;;;;;9.27;3.75;;;23.40;1.00;;;;;;5049267;28;20040;-74
2023/09/14 06:49:43;;;;;;;9.70;3.47;;;23.60;99.90;;;;;;5051392;28;20112;-74
2023/09/14 06:52:09;;;;;;;12.82;3.75;;;24.20;1.00;;;;;;5038664;28;20063;-75
2023/09/14 06:54:34;;;;;;;11.98;3.50;;;23.70;1.00;;;;;;5051393;28;20120;-75
2023/09/14 06:57:00;;;;;;;6.72;3.38;;;22.60;99.90;;;;;;5053799;28;20025;-75
2023/09/14 06:59:25;;;;;;;8.45;3.92;;;22.40;94.70;;;;;;5045289;28;20509;-71
2023/09/14 07:01:51;;;;;;;9.05;3.10;;;22.30;99.90;;;;;;5034606;28;20450;-74
2023/09/14 07:04:17;;;;;;;11.10;3.47;;;23.40;99.90;;;;;;5045341;28;20037;-74
2023/09/14 07:06:42;;;;;;;12.85;3.22;;;22.80;99.90;;;;;;5053317;28;20467;-75
2023/09/14 07:09:08;;;;;;;9.63;3.33;;;22.50;99.90;;;;;;5053503;28;20033;-74
2023/09/14 07:11:34;;;;;;;10.65;3.28;;;22.20;99.90;;;;;;5052157;28;20040;-74
2023/09/14 07:14:00;;;;;;;8.15;2.83;;;22.50;99.90;;;;;;5053934;28;20033;-75
2023/09/14 07:16:26;;;;;;;8.43;3.13;;;23.80;99.90;;;;;;5052614;28;20047;-74
2023/09/14 07:18:52;;;;;;;8.57;2.97;;;25.40;1.00;;;;;;5053446;28;20154;-75
2023/09/14 07:21:17;;;;;;;8.82;3.80;;;25.40;1.00;;;;;;5050828;28;20029;-74
2023/09/14 07:23:43;;;;;;;11.93;2.97;;;24.90;1.00;;;;;;5039969;28;20052;-75
2023/09/14 07:26:08;;;;;;;7.40;3.10;;;24.20;1.00;;;;;;5040889;28;20083;-74
2023/09/14 07:28:34;;;;;;;8.63;3.10;;;24.60;1.00;;;;;;5036395;28;20056;-74
2023/09/14 07:31:04;;;;;;;10.25;3.22;;;24.50;1.00;;;;;;5052850;28;20094;-75
2023/09/14 07:33:30;;;;;;;9.35;3.20;;;24.80;99.90;;;;;;5043960;28;20029;-75
2023/09/14 07:35:55;;;;;;;7.88;2.80;;;24.50;1.00;;;;;;5053844;28;20079;-76
2023/09/14 07:38:21;;;;;;;11.48;3.08;;;23.50;99.90;;;;;;5053576;28;20017;-74
2023/09/14 07:40:48;;;;;;;12.60;3.30;;;23.20;99.90;;;;;;5053981;28;20459;-74
2023/09/14 07:43:14;;;;;;;7.00;2.72;;;23.70;99.90;;;;;;5050407;28;20032;-74
2023/09/14 07:45:40;;;;;;;10.48;3.38;;;23.30;1.00;;;;;;5038704;28;20059;-74
2023/09/14 07:48:07;;;;;;;10.55;3.03;;;22.50;1.00;;;;;;5052539;28;20376;-75
2023/09/14 07:50:36;;;;;;;7.65;2.25;;;22.80;1.00;;;;;;5054599;28;20037;-73
2023/09/14 07:53:03;;;;;;;7.63;2.28;;;24.10;1.00;;;;;;5057177;28;20455;-74
2023/09/14 07:55:29;;;;;;;7.85;2.40;;;24.60;99.90;;;;;;5048649;28;20033;-73
2023/09/14 07:57:55;;;;;;;11.48;3.28;;;23.70;99.90;;;;;;5055713;28;20501;-74
2023/09/14 08:00:20;;;;;;;7.47;2.53;;;23.30;1.00;;;;;;5056796;28;20024;-75
2023/09/14 08:02:46;;;;;;;9.20;2.60;;;22.60;1.00;;;;;;5047490;28;20387;-74
2023/09/14 08:05:11;;;;;;;8.23;2.25;;;23.10;1.00;;;;;;5037630;28;20041;-74
2023/09/14 08:07:37;;;;;;;11.48;2.88;;;23.30;99.90;;;;;;5047933;28;20551;-74
2023/09/14 08:10:03;;;;;;;8.35;2.35;;;23.20;1.00;;;;;;5055921;28;20033;-74
2023/09/14 08:12:29;;;;;;;11.20;3.05;;;23.50;99.90;;;;;;5044908;28;20030;-73
2023/09/14 08:14:54;;;;;;;8.38;2.45;;;23.20;99.90;;;;;;5047336;28;20033;-74
2023/09/14 08:17:20;;;;;;;11.13;3.08;;;23.60;99.90;;;;;;5056745;28;20025;-75
2023/09/14 08:19:46;;;;;;;10.48;2.53;;;22.80;99.90;;;;;;5048995;28;20411;-73
2023/09/14 08:22:11;;;;;;;7.57;2.53;;;22.70;99.90;;;;;;5056605;28;20025;-77
2023/09/14 08:24:37;;;;;;;7.40;2.38;;;23.20;99.90;;;;;;5055793;28;20402;-74
2023/09/14 08:27:02;;;;;;;7.20;2.38;;;23.20;1.00;;;;;;5055929;28;20028;-75
2023/09/14 08:29:30;;;;;;;8.35;2.30;;;24.30;99.90;;;;;;5054769;28;20059;-75
2023/09/14 08:31:55;;;;;;;10.25;2.80;;;23.70;99.90;;;;;;5054117;28;20029;-74
2023/09/14 08:34:21;;;;;;;10.82;3.13;;;23.40;99.90;;;;;;5058229;28;20031;-74
2023/09/14 08:36:46;;;;;;;6.28;2.22;;;23.30;99.90;;;;;;5064660;28;20032;-73
2023/09/14 08:39:12;;;;;;;7.20;2.20;;;24.20;99.90;;;;;;5044761;28;20480;-74
2023/09/14 08:41:40;;;;;;;12.13;2.58;;;24.90;99.90;;;;;;5049421;28;20072;-69
2023/09/14 08:44:07;;;;;;;7.22;2.20;;;24.70;99.90;;;;;;5054066;28;20372;-74
2023/09/14 08:46:34;;;;;;;10.65;2.60;;;24.40;99.90;;;;;;5052657;28;20471;-75
2023/09/14 08:49:02;;;;;;;10.77;2.50;;;24.40;99.90;;;;;;5050847;28;20513;-72
2023/09/14 08:51:31;;;;;;;7.25;2.20;;;24.30;99.90;;;;;;5063368;28;20026;-74
2023/09/14 08:53:58;;;;;;;8.95;2.15;;;25.10;59.40;;;;;;5042952;28;20507;-73
2023/09/14 08:56:25;;;;;;;10.85;2.65;;;24.70;38.60;;;;;;5054383;28;20021;-75
2023/09/14 08:58:52;;;;;;;8.73;1.90;;;25.50;41.60;;;;;;5054555;28;20477;-74
2023/09/14 09:01:17;;;;;;;7.45;2.25;;;25.20;13.80;;;;;;5049366;28;20039;-68
2023/09/14 09:03:44;;;;;;;8.13;2.30;;;25.80;1.00;;;;;;5049296;28;20475;-74
2023/09/14 09:06:11;;;;;;;6.45;2.17;;;25.60;1.00;;;;;;5039530;28;20029;-75
2023/09/14 09:08:37;;;;;;;7.45;1.92;;;24.20;23.50;;;;;;5035274;28;20112;-75
2023/09/14 09:11:03;;;;;;;5.70;1.77;;;23.80;99.90;;;;;;5036039;28;20551;-77
2023/09/14 09:13:33;;;;;;;12.23;2.40;;;23.60;99.90;;;;;;5037341;28;20426;-74
2023/09/14 09:15:59;;;;;;;8.38;2.83;;;24.30;99.90;;;;;;5053486;28;20029;-75
2023/09/14 09:18:25;;;;;;;6.13;1.83;;;24.30;75.50;;;;;;5044379;28;20075;-75
2023/09/14 09:20:51;;;;;;;9.20;2.08;;;24.40;99.90;;;;;;5046581;28;20112;-75
2023/09/14 09:23:20;;;;;;;6.03;2.20;;;24.40;78.50;;;;;;5055993;28;20521;-75
2023/09/14 09:25:48;;;;;;;8.00;2.25;;;24.30;99.90;;;;;;5055143;28;20128;-74
2023/09/14 09:28:14;;;;;;;4.53;2.00;;;23.90;56.40;;;;;;5055724;28;20058;-75
2023/09/14 09:30:40;;;;;;;6.07;2.30;;;24.30;33.90;;;;;;5050113;28;20039;-73
2023/09/14 09:33:07;;;;;;;7.95;1.83;;;24.00;17.50;;;;;;5046831;28;20538;-73
2023/09/14 09:35:35;;;;;;;9.10;2.30;;;24.60;99.90;;;;;;5053363;28;20051;-74
2023/09/14 09:38:11;;;;;;;7.20;2.30;;;25.30;64.70;;;;;;5053901;28;20514;-74
2023/09/14 09:40:41;;;;;;;5.72;2.15;;;24.60;2.70;;;;;;5046201;28;20026;-75
2023/09/14 09:43:07;;;;;;;6.80;2.10;;;24.20;80.90;;;;;;5037757;28;20041;-75
2023/09/14 09:45:33;;;;;;;8.63;2.47;;;24.80;99.90;;;;;;5046182;28;20128;-75
2023/09/14 09:48:01;;;;;;;6.97;2.20;;;24.20;80.30;;;;;;5047203;28;20118;-74
2023/09/14 09:50:28;;;;;;;6.43;2.03;;;24.50;86.20;;;;;;5052876;28;20036;-74
2023/09/14 09:52:53;;;;;;;6.38;2.42;;;24.90;10.40;;;;;;5053617;28;20060;-74
2023/09/14 09:55:24;;;;;;;6.97;2.03;;;24.50;38.40;;;;;;5044639;28;20122;-75
2023/09/14 09:57:53;;;;;;;6.43;2.13;;;24.20;50.10;;;;;;5054649;28;20146;-74
2023/09/14 10:00:20;;;;;;;6.45;2.30;;;23.60;76.60;;;;;;5053722;28;20155;-75
2023/09/14 10:02:51;;;;;;;6.68;2.20;;;23.50;99.90;;;;;;5049960;28;20037;-74
2023/09/14 10:05:26;;;;;;;8.85;2.10;;;23.70;99.90;;;;;;5049969;28;20466;-75
2023/09/14 10:07:52;;;;;;;7.97;2.22;;;24.00;48.70;;;;;;5035651;28;20045;-76
2023/09/14 10:10:24;;;;;;;5.40;2.13;;;23.30;80.80;;;;;;5033576;28;20040;-72
2023/09/14 10:12:52;;;;;;;6.32;2.20;;;23.10;99.30;;;;;;5052511;28;20028;-76
2023/09/14 10:15:19;;;;;;;6.68;2.30;;;22.50;99.90;;;;;;5045599;28;20104;-75
2023/09/14 10:17:48;;;;;;;4.38;2.00;;;22.80;99.90;;;;;;5046134;28;20506;-75
2023/09/14 10:20:15;;;;;;;4.63;2.20;;;23.00;99.90;;;;;;5049542;28;20033;-75
2023/09/14 10:22:41;;;;;;;9.35;2.00;;;23.30;99.90;;;;;;5053374;28;20060;-76
2023/09/14 10:25:08;;;;;;;6.82;1.90;;;23.80;99.90;;;;;;5052728;28;20036;-76
2023/09/14 10:27:34;;;;;;;5.97;1.95;;;24.10;48.30;;;;;;5052987;28;20115;-75
2023/09/14 10:30:04;;;;;;;6.22;2.13;;;24.10;94.00;;;;;;5047219;28;20129;-75
2023/09/14 10:32:32;;;;;;;5.97;1.90;;;24.70;33.20;;;;;;5051244;28;20025;-72
2023/09/14 10:35:00;;;;;;;6.90;2.22;;;24.70;1.00;;;;;;5050480;28;20414;-75
2023/09/14 10:37:28;;;;;;;6.78;2.20;;;24.70;1.00;;;;;;5052930;28;20021;-75
2023/09/14 10:39:54;;;;;;;8.32;2.38;;;24.60;1.00;;;;;;5050859;28;20025;-75
2023/09/14 10:42:20;;;;;;;9.40;2.58;;;24.60;1.00;;;;;;5035722;28;20083;-75
2023/09/14 10:44:46;;;;;;;9.07;2.22;;;24.70;1.00;;;;;;5049468;28;20433;-75
2023/09/14 10:47:15;;;;;;;7.35;1.92;;;24.30;1.00;;;;;;5053066;28;20075;-76
2023/09/14 10:49:44;;;;;;;6.30;2.10;;;24.10;24.10;;;;;;5054705;28;20033;-75
2023/09/14 10:52:10;;;;;;;5.43;2.10;;;24.20;1.00;;;;;;5051639;28;20526;-75
2023/09/14 10:54:36;;;;;;;8.05;2.00;;;23.60;20.40;;;;;;5043380;28;20033;-71
2023/09/14 10:57:13;;;;;;;5.28;2.20;;;24.20;75.20;;;;;;5045612;28;20025;-75
2023/09/14 10:59:57;;;;;;;8.93;2.42;;;24.20;9.40;;;;;;5050921;28;20032;-75
2023/09/14 11:05:24;;;;;;;7.40;2.60;;;24.00;99.90;;;;;;5038289;28;20412;-74
2023/09/14 11:08:05;;;;;;;9.13;2.50;;;23.80;59.90;;;;;;5040627;28;20044;-74
2023/09/14 11:10:31;;;;;;;6.10;2.03;;;23.60;99.90;;;;;;5036367;28;20033;-75
2023/09/14 11:16:10;;;;;;;7.28;2.28;;;23.80;99.90;;;;;;5066297;28;20403;-74
2023/09/14 11:18:51;;;;;;;7.20;2.35;;;23.80;99.90;;;;;;5050083;28;20075;-67
2023/09/14 11:24:10;;;;;;;9.93;2.30;;;24.00;38.20;;;;;;5099314;27;20412;-75
2023/09/14 11:26:42;;;;;;;4.95;2.47;;;23.90;99.90;;;;;;5091155;28;20043;-76
2023/09/14 11:29:08;;;;;;;7.18;1.98;;;24.10;99.90;;;;;;5088870;28;20028;-75
2023/09/14 11:31:34;;;;;;;8.68;2.70;;;23.50;94.90;;;;;;5087563;28;20539;-76
2023/09/14 11:34:12;;;;;;;8.82;2.20;;;23.20;38.30;;;;;;5083612;28;20024;-75
2023/09/14 11:36:39;;;;;;;6.57;2.25;;;22.90;56.00;;;;;;5080196;28;20071;-74
2023/09/14 11:39:10;;;;;;;6.22;2.58;;;22.30;99.90;;;;;;5086668;28;20028;-75
2023/09/14 11:41:57;;;;;;;6.20;2.25;;;22.30;99.90;;;;;;5083742;28;20054;-75
2023/09/14 11:44:24;;;;;;;7.20;2.33;;;21.80;99.90;;;;;;5078068;28;20048;-75
2023/09/14 11:46:50;;;;;;;4.18;2.15;;;21.80;99.90;;;;;;5088034;28;20051;-76
2023/09/14 11:49:19;;;;;;;7.13;2.30;;;21.70;99.90;;;;;;5088497;28;20027;-74
2023/09/14 11:51:44;;;;;;;5.50;2.60;;;22.20;99.90;;;;;;5073676;28;20032;-74
2023/09/14 11:54:10;;;;;;;10.63;2.60;;;22.10;99.90;;;;;;5075718;28;20051;-74
2023/09/14 11:56:36;;;;;;;5.57;2.28;;;21.80;99.90;;;;;;5089315;28;20097;-74
2023/09/14 11:59:02;;;;;;;6.38;2.35;;;22.20;99.90;;;;;;5088820;28;20024;-74
2023/09/14 12:01:31;;;;;;;7.13;2.30;;;21.70;99.90;;;;;;5088163;28;20031;-74
2023/09/14 12:03:58;;;;;;;6.35;2.55;;;21.60;99.90;;;;;;5088760;28;20065;-74
2023/09/14 12:06:26;;;;;;;7.88;2.40;;;21.10;1.00;;;;;;5089231;28;20036;-75
2023/09/14 12:08:52;;;;;;;6.15;2.15;;;20.60;99.90;;;;;;5089786;28;20029;-75
2023/09/14 12:11:19;;;;;;;6.55;2.65;;;20.80;25.60;;;;;;5089960;28;20028;-75
2023/09/14 12:13:53;;;;;;;5.93;2.58;;;21.10;1.00;;;;;;5089503;28;20024;-76
2023/09/14 12:16:21;;;;;;;6.82;2.50;;;21.20;99.90;;;;;;5089551;28;20031;-76
2023/09/14 12:18:47;;;;;;;8.35;2.20;;;20.90;99.90;;;;;;5090499;28;20111;-76
2023/09/14 12:21:14;;;;;;;7.65;2.70;;;20.70;99.90;;;;;;5088186;28;20025;-74
2023/09/14 12:23:43;;;;;;;7.53;2.67;;;20.60;99.90;;;;;;5087930;28;20040;-74
2023/09/14 12:26:12;;;;;;;4.90;2.42;;;20.50;99.90;;;;;;5087902;28;20103;-74
2023/09/14 12:28:38;;;;;;;9.20;2.72;;;20.60;1.00;;;;;;5074555;28;20025;-74
2023/09/14 12:31:06;;;;;;;3.97;2.50;;;21.00;32.50;;;;;;5089345;28;20038;-75
2023/09/14 12:33:31;;;;;;;5.03;2.42;;;21.20;99.90;;;;;;5086438;28;20028;-74
2023/09/14 12:35:57;;;;;;;7.20;2.47;;;21.20;99.90;;;;;;5075985;28;20032;-75
2023/09/14 12:38:23;;;;;;;5.57;2.33;;;21.20;12.00;;;;;;5075774;28;20029;-74
2023/09/14 12:40:50;;;;;;;5.70;2.28;;;21.20;1.00;;;;;;5074978;28;20035;-75
2023/09/14 12:43:17;;;;;;;9.85;3.13;;;21.20;99.90;;;;;;5075875;28;20032;-74
2023/09/14 12:45:43;;;;;;;5.93;2.40;;;20.90;1.00;;;;;;5075507;28;20028;-75
2023/09/14 12:48:09;;;;;;;6.75;2.47;;;20.70;99.90;;;;;;5075586;28;20028;-75
2023/09/14 12:50:35;;;;;;;8.10;3.08;;;20.80;99.90;;;;;;5075579;28;20032;-75